sensor_id;sensor_type;location;lat;lon;timestamp;P1;durP1;ratioP1;P2;durP2;ratioP2
14096;SDS011;7125;48.106;11.544;2022-07-29T00:00:04;2.47;;;1.10;;
14096;SDS011;7125;48.106;11.544;2022-07-29T00:02:33;1.85;;;1.10;;
14096;SDS011;7125;48.106;11.544;2022-07-29T00:04:59;2.72;;;1.17;;
14096;SDS011;7125;48.106;11.544;2022-07-29T00:07:27;2.95;;;1.48;;
14096;SDS011;7125;48.106;11.544;2022-07-29T00:09:55;1.40;;;1.30;;
14096;SDS011;7125;48.106;11.544;2022-07-29T00:12:23;2.50;;;1.83;;
14096;SDS011;7125;48.106;11.544;2022-07-29T00:14:50;4.55;;;1.45;;
14096;SDS011;7125;48.106;11.544;2022-07-29T00:17:17;2.63;;;1.67;;
14096;SDS011;7125;48.106;11.544;2022-07-29T00:19:44;1.55;;;1.45;;
14096;SDS011;7125;48.106;11.544;2022-07-29T00:22:11;1.67;;;1.58;;
14096;SDS011;7125;48.106;11.544;2022-07-29T00:24:38;1.40;;;1.30;;
14096;SDS011;7125;48.106;11.544;2022-07-29T00:27:06;2.97;;;1.80;;
14096;SDS011;7125;48.106;11.544;2022-07-29T00:29:33;2.38;;;2.10;;
14096;SDS011;7125;48.106;11.544;2022-07-29T00:32:00;1.60;;;1.50;;
14096;SDS011;7125;48.106;11.544;2022-07-29T00:34:26;2.17;;;2.05;;
14096;SDS011;7125;48.106;11.544;2022-07-29T00:37:11;1.45;;;1.35;;
14096;SDS011;7125;48.106;11.544;2022-07-29T00:39:37;1.52;;;1.30;;
14096;SDS011;7125;48.106;11.544;2022-07-29T00:42:06;2.83;;;1.25;;
14096;SDS011;7125;48.106;11.544;2022-07-29T00:44:35;1.25;;;0.98;;
14096;SDS011;7125;48.106;11.544;2022-07-29T00:47:03;3.10;;;1.40;;
14096;SDS011;7125;48.106;11.544;2022-07-29T00:49:30;1.42;;;1.15;;
14096;SDS011;7125;48.106;11.544;2022-07-29T00:51:56;1.85;;;1.30;;
14096;SDS011;7125;48.106;11.544;2022-07-29T00:54:23;1.20;;;1.10;;
14096;SDS011;7125;48.106;11.544;2022-07-29T00:56:51;1.80;;;1.30;;
14096;SDS011;7125;48.106;11.544;2022-07-29T00:59:20;3.08;;;1.23;;
14096;SDS011;7125;48.106;11.544;2022-07-29T01:01:47;1.33;;;0.93;;
14096;SDS011;7125;48.106;11.544;2022-07-29T01:04:14;0.90;;;0.80;;
14096;SDS011;7125;48.106;11.544;2022-07-29T01:06:41;2.60;;;1.20;;
14096;SDS011;7125;48.106;11.544;2022-07-29T01:09:09;1.00;;;1.00;;
14096;SDS011;7125;48.106;11.544;2022-07-29T01:11:36;1.52;;;1.27;;
14096;SDS011;7125;48.106;11.544;2022-07-29T01:14:04;2.83;;;1.33;;
14096;SDS011;7125;48.106;11.544;2022-07-29T01:16:39;1.02;;;1.02;;
14096;SDS011;7125;48.106;11.544;2022-07-29T01:19:13;2.13;;;1.13;;
14096;SDS011;7125;48.106;11.544;2022-07-29T01:21:59;1.23;;;1.13;;
14096;SDS011;7125;48.106;11.544;2022-07-29T01:24:42;0.95;;;0.95;;
14096;SDS011;7125;48.106;11.544;2022-07-29T01:27:32;1.17;;;1.00;;
14096;SDS011;7125;48.106;11.544;2022-07-29T01:30:08;1.38;;;0.93;;
14096;SDS011;7125;48.106;11.544;2022-07-29T01:32:37;0.85;;;0.75;;
14096;SDS011;7125;48.106;11.544;2022-07-29T01:35:06;0.60;;;0.60;;
14096;SDS011;7125;48.106;11.544;2022-07-29T01:37:38;0.60;;;0.60;;
14096;SDS011;7125;48.106;11.544;2022-07-29T01:40:11;1.73;;;0.80;;
14096;SDS011;7125;48.106;11.544;2022-07-29T01:42:48;0.75;;;0.75;;
14096;SDS011;7125;48.106;11.544;2022-07-29T01:45:20;3.15;;;1.00;;
14096;SDS011;7125;48.106;11.544;2022-07-29T01:47:53;0.82;;;0.82;;
14096;SDS011;7125;48.106;11.544;2022-07-29T01:50:25;1.13;;;1.00;;
14096;SDS011;7125;48.106;11.544;2022-07-29T01:52:56;0.70;;;0.70;;
14096;SDS011;7125;48.106;11.544;2022-07-29T01:55:26;1.23;;;0.80;;
14096;SDS011;7125;48.106;11.544;2022-07-29T01:57:57;0.57;;;0.57;;
14096;SDS011;7125;48.106;11.544;2022-07-29T02:00:27;1.00;;;1.00;;
14096;SDS011;7125;48.106;11.544;2022-07-29T02:02:56;1.33;;;0.85;;
14096;SDS011;7125;48.106;11.544;2022-07-29T02:05:26;0.80;;;0.80;;
14096;SDS011;7125;48.106;11.544;2022-07-29T02:07:54;1.00;;;0.73;;
14096;SDS011;7125;48.106;11.544;2022-07-29T02:10:25;1.00;;;1.00;;
14096;SDS011;7125;48.106;11.544;2022-07-29T02:12:54;0.88;;;0.80;;
14096;SDS011;7125;48.106;11.544;2022-07-29T02:15:22;1.35;;;0.75;;
14096;SDS011;7125;48.106;11.544;2022-07-29T02:17:53;2.05;;;0.93;;
14096;SDS011;7125;48.106;11.544;2022-07-29T02:20:22;0.70;;;0.70;;
14096;SDS011;7125;48.106;11.544;2022-07-29T02:22:52;2.55;;;0.93;;
14096;SDS011;7125;48.106;11.544;2022-07-29T02:25:21;1.42;;;1.10;;
14096;SDS011;7125;48.106;11.544;2022-07-29T02:27:50;2.38;;;0.60;;
14096;SDS011;7125;48.106;11.544;2022-07-29T02:30:17;0.60;;;0.60;;
14096;SDS011;7125;48.106;11.544;2022-07-29T02:32:45;0.70;;;0.70;;
14096;SDS011;7125;48.106;11.544;2022-07-29T02:35:16;1.25;;;1.00;;
14096;SDS011;7125;48.106;11.544;2022-07-29T02:37:44;1.15;;;1.05;;
14096;SDS011;7125;48.106;11.544;2022-07-29T02:40:33;0.98;;;0.95;;
14096;SDS011;7125;48.106;11.544;2022-07-29T02:43:01;0.77;;;0.77;;
14096;SDS011;7125;48.106;11.544;2022-07-29T02:45:30;1.20;;;1.10;;
14096;SDS011;7125;48.106;11.544;2022-07-29T02:48:02;1.17;;;1.00;;
14096;SDS011;7125;48.106;11.544;2022-07-29T02:50:38;1.42;;;1.10;;
14096;SDS011;7125;48.106;11.544;2022-07-29T02:53:12;0.73;;;0.73;;
14096;SDS011;7125;48.106;11.544;2022-07-29T02:55:43;1.42;;;1.33;;
14096;SDS011;7125;48.106;11.544;2022-07-29T02:58:13;1.50;;;1.40;;
14096;SDS011;7125;48.106;11.544;2022-07-29T03:00:46;1.10;;;1.00;;
14096;SDS011;7125;48.106;11.544;2022-07-29T03:03:15;1.40;;;1.30;;
14096;SDS011;7125;48.106;11.544;2022-07-29T03:05:45;1.42;;;0.82;;
14096;SDS011;7125;48.106;11.544;2022-07-29T03:08:12;2.08;;;1.08;;
14096;SDS011;7125;48.106;11.544;2022-07-29T03:10:42;1.08;;;1.00;;
14096;SDS011;7125;48.106;11.544;2022-07-29T03:13:10;0.85;;;0.75;;
14096;SDS011;7125;48.106;11.544;2022-07-29T03:15:38;1.45;;;1.08;;
14096;SDS011;7125;48.106;11.544;2022-07-29T03:18:05;1.27;;;1.08;;
14096;SDS011;7125;48.106;11.544;2022-07-29T03:20:33;1.35;;;1.25;;
14096;SDS011;7125;48.106;11.544;2022-07-29T03:23:01;6.32;;;1.40;;
14096;SDS011;7125;48.106;11.544;2022-07-29T03:25:29;0.95;;;0.95;;
14096;SDS011;7125;48.106;11.544;2022-07-29T03:27:56;1.35;;;0.82;;
14096;SDS011;7125;48.106;11.544;2022-07-29T03:30:23;1.98;;;1.30;;
14096;SDS011;7125;48.106;11.544;2022-07-29T03:32:50;1.45;;;1.33;;
14096;SDS011;7125;48.106;11.544;2022-07-29T03:35:18;0.82;;;0.82;;
14096;SDS011;7125;48.106;11.544;2022-07-29T03:37:45;2.67;;;0.90;;
14096;SDS011;7125;48.106;11.544;2022-07-29T03:40:14;1.33;;;0.88;;
14096;SDS011;7125;48.106;11.544;2022-07-29T03:42:45;2.75;;;2.00;;
14096;SDS011;7125;48.106;11.544;2022-07-29T03:45:15;1.33;;;1.02;;
14096;SDS011;7125;48.106;11.544;2022-07-29T03:47:45;2.05;;;1.85;;
14096;SDS011;7125;48.106;11.544;2022-07-29T03:50:16;1.63;;;0.90;;
14096;SDS011;7125;48.106;11.544;2022-07-29T03:52:45;1.38;;;1.27;;
14096;SDS011;7125;48.106;11.544;2022-07-29T03:55:13;0.82;;;0.82;;
14096;SDS011;7125;48.106;11.544;2022-07-29T03:57:41;1.77;;;1.23;;
14096;SDS011;7125;48.106;11.544;2022-07-29T04:00:10;2.33;;;1.00;;
14096;SDS011;7125;48.106;11.544;2022-07-29T04:02:37;1.60;;;1.13;;
14096;SDS011;7125;48.106;11.544;2022-07-29T04:05:07;1.23;;;1.13;;
14096;SDS011;7125;48.106;11.544;2022-07-29T04:07:38;1.38;;;1.00;;
14096;SDS011;7125;48.106;11.544;2022-07-29T04:10:05;1.23;;;1.13;;
14096;SDS011;7125;48.106;11.544;2022-07-29T04:12:34;1.23;;;1.13;;
14096;SDS011;7125;48.106;11.544;2022-07-29T04:15:01;1.20;;;1.10;;
14096;SDS011;7125;48.106;11.544;2022-07-29T04:17:29;4.60;;;1.02;;
14096;SDS011;7125;48.106;11.544;2022-07-29T04:19:55;1.67;;;1.17;;
14096;SDS011;7125;48.106;11.544;2022-07-29T04:22:22;1.65;;;1.23;;
14096;SDS011;7125;48.106;11.544;2022-07-29T04:24:49;4.55;;;1.33;;
14096;SDS011;7125;48.106;11.544;2022-07-29T04:27:16;1.38;;;1.23;;
14096;SDS011;7125;48.106;11.544;2022-07-29T04:29:44;1.05;;;1.05;;
14096;SDS011;7125;48.106;11.544;2022-07-29T04:32:11;2.63;;;1.25;;
14096;SDS011;7125;48.106;11.544;2022-07-29T04:34:38;2.50;;;1.50;;
14096;SDS011;7125;48.106;11.544;2022-07-29T04:37:05;1.30;;;1.23;;
14096;SDS011;7125;48.106;11.544;2022-07-29T04:39:31;1.30;;;1.20;;
14096;SDS011;7125;48.106;11.544;2022-07-29T04:41:58;1.75;;;1.45;;
14096;SDS011;7125;48.106;11.544;2022-07-29T04:44:25;0.90;;;0.90;;
14096;SDS011;7125;48.106;11.544;2022-07-29T04:46:54;1.40;;;1.30;;
14096;SDS011;7125;48.106;11.544;2022-07-29T04:49:21;1.33;;;1.23;;
14096;SDS011;7125;48.106;11.544;2022-07-29T04:51:48;1.15;;;1.15;;
14096;SDS011;7125;48.106;11.544;2022-07-29T04:54:15;1.30;;;1.20;;
14096;SDS011;7125;48.106;11.544;2022-07-29T04:56:41;1.20;;;1.20;;
14096;SDS011;7125;48.106;11.544;2022-07-29T04:59:08;2.50;;;1.25;;
14096;SDS011;7125;48.106;11.544;2022-07-29T05:01:35;2.30;;;1.10;;
14096;SDS011;7125;48.106;11.544;2022-07-29T05:04:03;1.90;;;1.23;;
14096;SDS011;7125;48.106;11.544;2022-07-29T05:06:30;1.35;;;1.25;;
14096;SDS011;7125;48.106;11.544;2022-07-29T05:08:57;1.90;;;1.42;;
14096;SDS011;7125;48.106;11.544;2022-07-29T05:11:24;1.20;;;1.10;;
14096;SDS011;7125;48.106;11.544;2022-07-29T05:13:50;1.23;;;1.15;;
14096;SDS011;7125;48.106;11.544;2022-07-29T05:16:17;1.48;;;1.38;;
14096;SDS011;7125;48.106;11.544;2022-07-29T05:18:44;2.03;;;1.30;;
14096;SDS011;7125;48.106;11.544;2022-07-29T05:21:12;2.08;;;1.48;;
14096;SDS011;7125;48.106;11.544;2022-07-29T05:23:39;1.60;;;1.50;;
14096;SDS011;7125;48.106;11.544;2022-07-29T05:26:06;1.48;;;1.35;;
14096;SDS011;7125;48.106;11.544;2022-07-29T05:28:34;3.13;;;1.60;;
14096;SDS011;7125;48.106;11.544;2022-07-29T05:31:01;1.65;;;1.55;;
14096;SDS011;7125;48.106;11.544;2022-07-29T05:33:28;2.25;;;1.60;;
14096;SDS011;7125;48.106;11.544;2022-07-29T05:35:55;1.77;;;1.30;;
14096;SDS011;7125;48.106;11.544;2022-07-29T05:38:23;2.05;;;1.85;;
14096;SDS011;7125;48.106;11.544;2022-07-29T05:40:50;1.52;;;1.42;;
14096;SDS011;7125;48.106;11.544;2022-07-29T05:43:17;3.08;;;1.77;;
14096;SDS011;7125;48.106;11.544;2022-07-29T05:45:44;1.48;;;1.25;;
14096;SDS011;7125;48.106;11.544;2022-07-29T05:48:11;2.25;;;1.48;;
14096;SDS011;7125;48.106;11.544;2022-07-29T05:50:38;3.33;;;2.03;;
14096;SDS011;7125;48.106;11.544;2022-07-29T05:53:05;2.78;;;1.50;;
14096;SDS011;7125;48.106;11.544;2022-07-29T05:55:33;1.98;;;1.85;;
14096;SDS011;7125;48.106;11.544;2022-07-29T05:58:00;2.30;;;1.45;;
14096;SDS011;7125;48.106;11.544;2022-07-29T06:00:27;1.77;;;1.67;;
14096;SDS011;7125;48.106;11.544;2022-07-29T06:02:53;2.55;;;1.70;;
14096;SDS011;7125;48.106;11.544;2022-07-29T06:05:20;1.50;;;1.40;;
14096;SDS011;7125;48.106;11.544;2022-07-29T06:07:47;1.58;;;1.48;;
14096;SDS011;7125;48.106;11.544;2022-07-29T06:10:14;2.17;;;1.88;;
14096;SDS011;7125;48.106;11.544;2022-07-29T06:12:42;1.77;;;1.67;;
14096;SDS011;7125;48.106;11.544;2022-07-29T06:15:09;1.60;;;1.50;;
14096;SDS011;7125;48.106;11.544;2022-07-29T06:17:36;1.67;;;1.58;;
14096;SDS011;7125;48.106;11.544;2022-07-29T06:20:03;1.73;;;1.63;;
14096;SDS011;7125;48.106;11.544;2022-07-29T06:22:30;2.47;;;1.70;;
14096;SDS011;7125;48.106;11.544;2022-07-29T06:24:57;1.90;;;1.80;;
14096;SDS011;7125;48.106;11.544;2022-07-29T06:27:24;2.30;;;1.95;;
14096;SDS011;7125;48.106;11.544;2022-07-29T06:29:52;1.95;;;1.50;;
14096;SDS011;7125;48.106;11.544;2022-07-29T06:32:19;2.97;;;1.30;;
14096;SDS011;7125;48.106;11.544;2022-07-29T06:34:46;2.28;;;1.63;;
14096;SDS011;7125;48.106;11.544;2022-07-29T06:37:13;4.38;;;1.85;;
14096;SDS011;7125;48.106;11.544;2022-07-29T06:39:41;2.55;;;1.50;;
14096;SDS011;7125;48.106;11.544;2022-07-29T06:42:08;2.28;;;1.40;;
14096;SDS011;7125;48.106;11.544;2022-07-29T06:44:35;3.35;;;2.15;;
14096;SDS011;7125;48.106;11.544;2022-07-29T06:47:03;2.35;;;1.83;;
14096;SDS011;7125;48.106;11.544;2022-07-29T06:49:30;4.22;;;1.73;;
14096;SDS011;7125;48.106;11.544;2022-07-29T06:51:57;1.45;;;1.33;;
14096;SDS011;7125;48.106;11.544;2022-07-29T06:54:23;4.15;;;1.88;;
14096;SDS011;7125;48.106;11.544;2022-07-29T06:56:50;2.10;;;1.90;;
14096;SDS011;7125;48.106;11.544;2022-07-29T06:59:17;1.83;;;1.60;;
14096;SDS011;7125;48.106;11.544;2022-07-29T07:01:44;1.85;;;1.50;;
14096;SDS011;7125;48.106;11.544;2022-07-29T07:04:12;2.72;;;1.73;;
14096;SDS011;7125;48.106;11.544;2022-07-29T07:06:39;2.72;;;1.83;;
14096;SDS011;7125;48.106;11.544;2022-07-29T07:09:06;1.50;;;1.40;;
14096;SDS011;7125;48.106;11.544;2022-07-29T07:11:33;3.72;;;1.67;;
14096;SDS011;7125;48.106;11.544;2022-07-29T07:14:00;1.17;;;1.17;;
14096;SDS011;7125;48.106;11.544;2022-07-29T07:16:26;1.48;;;1.38;;
14096;SDS011;7125;48.106;11.544;2022-07-29T07:18:53;4.43;;;1.85;;
14096;SDS011;7125;48.106;11.544;2022-07-29T07:21:21;2.38;;;1.75;;
14096;SDS011;7125;48.106;11.544;2022-07-29T07:23:48;1.88;;;1.77;;
14096;SDS011;7125;48.106;11.544;2022-07-29T07:26:15;1.48;;;1.25;;
14096;SDS011;7125;48.106;11.544;2022-07-29T07:28:42;1.42;;;1.27;;
14096;SDS011;7125;48.106;11.544;2022-07-29T07:31:09;3.15;;;1.00;;
14096;SDS011;7125;48.106;11.544;2022-07-29T07:33:36;2.30;;;1.33;;
14096;SDS011;7125;48.106;11.544;2022-07-29T07:36:03;1.45;;;1.30;;
14096;SDS011;7125;48.106;11.544;2022-07-29T07:38:33;2.50;;;1.48;;
14096;SDS011;7125;48.106;11.544;2022-07-29T07:41:00;1.63;;;1.38;;
14096;SDS011;7125;48.106;11.544;2022-07-29T07:43:27;1.13;;;0.90;;
14096;SDS011;7125;48.106;11.544;2022-07-29T07:45:54;3.97;;;1.30;;
14096;SDS011;7125;48.106;11.544;2022-07-29T07:48:21;1.65;;;1.55;;
14096;SDS011;7125;48.106;11.544;2022-07-29T07:50:47;1.35;;;1.20;;
14096;SDS011;7125;48.106;11.544;2022-07-29T07:53:15;1.30;;;1.20;;
14096;SDS011;7125;48.106;11.544;2022-07-29T07:55:44;1.17;;;1.13;;
14096;SDS011;7125;48.106;11.544;2022-07-29T07:58:11;1.95;;;1.20;;
14096;SDS011;7125;48.106;11.544;2022-07-29T08:00:38;1.50;;;1.15;;
14096;SDS011;7125;48.106;11.544;2022-07-29T08:03:05;2.60;;;1.15;;
14096;SDS011;7125;48.106;11.544;2022-07-29T08:05:33;1.50;;;1.40;;
14096;SDS011;7125;48.106;11.544;2022-07-29T08:08:01;2.30;;;1.50;;
14096;SDS011;7125;48.106;11.544;2022-07-29T08:10:28;2.35;;;1.60;;
14096;SDS011;7125;48.106;11.544;2022-07-29T08:13:13;1.33;;;1.23;;
14096;SDS011;7125;48.106;11.544;2022-07-29T08:15:40;1.00;;;1.00;;
14096;SDS011;7125;48.106;11.544;2022-07-29T08:18:08;1.70;;;1.60;;
14096;SDS011;7125;48.106;11.544;2022-07-29T08:20:35;1.45;;;1.35;;
14096;SDS011;7125;48.106;11.544;2022-07-29T08:23:03;2.67;;;1.35;;
14096;SDS011;7125;48.106;11.544;2022-07-29T08:25:31;1.50;;;1.15;;
14096;SDS011;7125;48.106;11.544;2022-07-29T08:27:58;1.15;;;1.00;;
14096;SDS011;7125;48.106;11.544;2022-07-29T08:30:27;1.40;;;1.30;;
14096;SDS011;7125;48.106;11.544;2022-07-29T08:32:53;1.60;;;1.50;;
14096;SDS011;7125;48.106;11.544;2022-07-29T08:35:21;1.70;;;1.60;;
14096;SDS011;7125;48.106;11.544;2022-07-29T08:37:49;1.10;;;1.05;;
14096;SDS011;7125;48.106;11.544;2022-07-29T08:40:16;2.25;;;1.75;;
14096;SDS011;7125;48.106;11.544;2022-07-29T08:42:43;1.83;;;1.73;;
14096;SDS011;7125;48.106;11.544;2022-07-29T08:45:10;1.77;;;1.67;;
14096;SDS011;7125;48.106;11.544;2022-07-29T08:47:39;2.35;;;2.10;;
14096;SDS011;7125;48.106;11.544;2022-07-29T08:50:06;2.63;;;1.73;;
14096;SDS011;7125;48.106;11.544;2022-07-29T08:52:35;1.83;;;1.73;;
14096;SDS011;7125;48.106;11.544;2022-07-29T08:55:03;2.92;;;2.28;;
14096;SDS011;7125;48.106;11.544;2022-07-29T08:57:31;2.17;;;1.83;;
14096;SDS011;7125;48.106;11.544;2022-07-29T08:59:59;3.92;;;2.00;;
14096;SDS011;7125;48.106;11.544;2022-07-29T09:02:28;2.72;;;1.98;;
14096;SDS011;7125;48.106;11.544;2022-07-29T09:04:59;2.60;;;2.22;;
14096;SDS011;7125;48.106;11.544;2022-07-29T09:07:27;1.88;;;1.73;;
14096;SDS011;7125;48.106;11.544;2022-07-29T09:09:54;2.38;;;2.17;;
14096;SDS011;7125;48.106;11.544;2022-07-29T09:12:21;2.00;;;1.80;;
14096;SDS011;7125;48.106;11.544;2022-07-29T09:14:50;1.60;;;1.50;;
14096;SDS011;7125;48.106;11.544;2022-07-29T09:17:17;1.80;;;1.70;;
14096;SDS011;7125;48.106;11.544;2022-07-29T09:19:44;1.70;;;1.60;;
14096;SDS011;7125;48.106;11.544;2022-07-29T09:22:13;3.03;;;2.05;;
14096;SDS011;7125;48.106;11.544;2022-07-29T09:24:55;2.20;;;1.90;;
14096;SDS011;7125;48.106;11.544;2022-07-29T09:27:23;2.30;;;1.85;;
14096;SDS011;7125;48.106;11.544;2022-07-29T09:29:55;6.25;;;2.08;;
14096;SDS011;7125;48.106;11.544;2022-07-29T09:32:23;2.22;;;2.03;;
14096;SDS011;7125;48.106;11.544;2022-07-29T09:34:51;1.88;;;1.73;;
14096;SDS011;7125;48.106;11.544;2022-07-29T09:37:41;2.03;;;1.92;;
14096;SDS011;7125;48.106;11.544;2022-07-29T09:40:11;2.75;;;2.47;;
14096;SDS011;7125;48.106;11.544;2022-07-29T09:42:39;1.83;;;1.70;;
14096;SDS011;7125;48.106;11.544;2022-07-29T09:45:06;9.38;;;2.47;;
14096;SDS011;7125;48.106;11.544;2022-07-29T09:47:40;1.90;;;1.80;;
14096;SDS011;7125;48.106;11.544;2022-07-29T09:50:10;3.20;;;2.20;;
14096;SDS011;7125;48.106;11.544;2022-07-29T09:52:45;5.78;;;2.05;;
14096;SDS011;7125;48.106;11.544;2022-07-29T09:55:15;2.17;;;1.65;;
14096;SDS011;7125;48.106;11.544;2022-07-29T09:57:42;3.00;;;2.33;;
14096;SDS011;7125;48.106;11.544;2022-07-29T10:00:10;4.43;;;2.53;;
14096;SDS011;7125;48.106;11.544;2022-07-29T10:02:40;5.90;;;2.47;;
14096;SDS011;7125;48.106;11.544;2022-07-29T10:05:16;3.67;;;2.10;;
14096;SDS011;7125;48.106;11.544;2022-07-29T10:07:46;3.53;;;2.03;;
14096;SDS011;7125;48.106;11.544;2022-07-29T10:10:18;6.75;;;2.38;;
14096;SDS011;7125;48.106;11.544;2022-07-29T10:12:51;5.13;;;2.30;;
14096;SDS011;7125;48.106;11.544;2022-07-29T10:15:20;2.08;;;1.98;;
14096;SDS011;7125;48.106;11.544;2022-07-29T10:17:48;2.33;;;2.22;;
14096;SDS011;7125;48.106;11.544;2022-07-29T10:20:16;3.00;;;2.80;;
14096;SDS011;7125;48.106;11.544;2022-07-29T10:22:43;2.80;;;2.03;;
14096;SDS011;7125;48.106;11.544;2022-07-29T10:25:13;3.42;;;3.10;;
14096;SDS011;7125;48.106;11.544;2022-07-29T10:27:41;2.85;;;2.58;;
14096;SDS011;7125;48.106;11.544;2022-07-29T10:30:09;2.25;;;2.05;;
14096;SDS011;7125;48.106;11.544;2022-07-29T10:32:43;5.13;;;2.53;;
14096;SDS011;7125;48.106;11.544;2022-07-29T10:35:27;3.83;;;2.70;;
14096;SDS011;7125;48.106;11.544;2022-07-29T10:38:07;2.40;;;2.30;;
14096;SDS011;7125;48.106;11.544;2022-07-29T10:40:50;2.42;;;2.03;;
14096;SDS011;7125;48.106;11.544;2022-07-29T10:43:42;3.00;;;2.15;;
14096;SDS011;7125;48.106;11.544;2022-07-29T10:46:12;5.80;;;3.65;;
14096;SDS011;7125;48.106;11.544;2022-07-29T10:51:51;2.83;;;1.98;;
14096;SDS011;7125;48.106;11.544;2022-07-29T10:54:37;2.85;;;2.40;;
14096;SDS011;7125;48.106;11.544;2022-07-29T10:57:10;2.95;;;2.47;;
14096;SDS011;7125;48.106;11.544;2022-07-29T10:59:38;3.80;;;2.40;;
14096;SDS011;7125;48.106;11.544;2022-07-29T11:05:05;2.03;;;1.92;;
14096;SDS011;7125;48.106;11.544;2022-07-29T11:07:36;2.88;;;2.67;;
14096;SDS011;7125;48.106;11.544;2022-07-29T11:10:21;6.47;;;2.92;;
14096;SDS011;7125;48.106;11.544;2022-07-29T11:12:49;2.40;;;2.17;;
14096;SDS011;7125;48.106;11.544;2022-07-29T11:15:17;8.75;;;2.90;;
14096;SDS011;7125;48.106;11.544;2022-07-29T11:18:05;3.55;;;3.25;;
14096;SDS011;7125;48.106;11.544;2022-07-29T11:20:33;2.42;;;2.22;;
14096;SDS011;7125;48.106;11.544;2022-07-29T11:23:19;2.30;;;2.13;;
14096;SDS011;7125;48.106;11.544;2022-07-29T11:28:54;2.65;;;2.17;;
14096;SDS011;7125;48.106;11.544;2022-07-29T11:31:37;3.47;;;1.90;;
14096;SDS011;7125;48.106;11.544;2022-07-29T11:34:15;2.95;;;2.28;;
14096;SDS011;7125;48.106;11.544;2022-07-29T11:40:07;2.08;;;1.98;;
14096;SDS011;7125;48.106;11.544;2022-07-29T11:42:40;2.35;;;2.15;;
14096;SDS011;7125;48.106;11.544;2022-07-29T11:45:26;5.60;;;3.38;;
14096;SDS011;7125;48.106;11.544;2022-07-29T11:48:19;2.30;;;2.20;;
14096;SDS011;7125;48.106;11.544;2022-07-29T11:50:46;3.28;;;2.28;;
14096;SDS011;7125;48.106;11.544;2022-07-29T11:53:14;5.38;;;2.42;;
14096;SDS011;7125;48.106;11.544;2022-07-29T11:55:41;2.58;;;2.38;;
14096;SDS011;7125;48.106;11.544;2022-07-29T11:58:09;2.00;;;1.90;;
14096;SDS011;7125;48.106;11.544;2022-07-29T12:00:38;4.32;;;2.72;;
14096;SDS011;7125;48.106;11.544;2022-07-29T12:03:06;2.38;;;2.17;;
14096;SDS011;7125;48.106;11.544;2022-07-29T12:05:36;2.83;;;2.60;;
14096;SDS011;7125;48.106;11.544;2022-07-29T12:08:17;2.65;;;1.90;;
14096;SDS011;7125;48.106;11.544;2022-07-29T12:10:45;6.40;;;2.40;;
14096;SDS011;7125;48.106;11.544;2022-07-29T12:13:15;4.45;;;2.20;;
14096;SDS011;7125;48.106;11.544;2022-07-29T12:15:51;2.97;;;2.45;;
14096;SDS011;7125;48.106;11.544;2022-07-29T12:18:18;2.55;;;2.25;;
14096;SDS011;7125;48.106;11.544;2022-07-29T12:20:46;2.33;;;1.90;;
14096;SDS011;7125;48.106;11.544;2022-07-29T12:23:14;2.60;;;2.40;;
14096;SDS011;7125;48.106;11.544;2022-07-29T12:25:43;4.20;;;2.28;;
14096;SDS011;7125;48.106;11.544;2022-07-29T12:28:11;3.20;;;2.42;;
14096;SDS011;7125;48.106;11.544;2022-07-29T12:30:43;3.88;;;2.40;;
14096;SDS011;7125;48.106;11.544;2022-07-29T12:33:12;3.45;;;2.25;;
14096;SDS011;7125;48.106;11.544;2022-07-29T12:35:41;7.30;;;2.55;;
14096;SDS011;7125;48.106;11.544;2022-07-29T12:38:10;5.35;;;2.65;;
14096;SDS011;7125;48.106;11.544;2022-07-29T12:40:37;3.17;;;2.10;;
14096;SDS011;7125;48.106;11.544;2022-07-29T12:43:06;4.00;;;2.28;;
14096;SDS011;7125;48.106;11.544;2022-07-29T12:45:35;2.88;;;2.63;;
14096;SDS011;7125;48.106;11.544;2022-07-29T12:48:04;2.80;;;2.00;;
14096;SDS011;7125;48.106;11.544;2022-07-29T12:50:33;3.17;;;2.58;;
14096;SDS011;7125;48.106;11.544;2022-07-29T12:53:08;2.85;;;2.15;;
14096;SDS011;7125;48.106;11.544;2022-07-29T12:55:39;4.75;;;2.50;;
14096;SDS011;7125;48.106;11.544;2022-07-29T12:58:07;7.07;;;2.80;;
14096;SDS011;7125;48.106;11.544;2022-07-29T13:00:35;2.85;;;2.25;;
14096;SDS011;7125;48.106;11.544;2022-07-29T13:03:02;3.90;;;2.30;;
14096;SDS011;7125;48.106;11.544;2022-07-29T13:05:41;2.80;;;2.50;;
14096;SDS011;7125;48.106;11.544;2022-07-29T13:08:09;4.18;;;2.60;;
14096;SDS011;7125;48.106;11.544;2022-07-29T13:10:37;4.82;;;2.58;;
14096;SDS011;7125;48.106;11.544;2022-07-29T13:13:04;3.30;;;2.10;;
14096;SDS011;7125;48.106;11.544;2022-07-29T13:15:33;3.03;;;2.78;;
14096;SDS011;7125;48.106;11.544;2022-07-29T13:18:00;3.42;;;3.13;;
14096;SDS011;7125;48.106;11.544;2022-07-29T13:20:28;2.67;;;2.47;;
14096;SDS011;7125;48.106;11.544;2022-07-29T13:22:57;7.85;;;2.53;;
14096;SDS011;7125;48.106;11.544;2022-07-29T13:25:25;2.63;;;2.42;;
14096;SDS011;7125;48.106;11.544;2022-07-29T13:27:53;3.47;;;3.08;;
14096;SDS011;7125;48.106;11.544;2022-07-29T13:30:20;6.13;;;2.25;;
14096;SDS011;7125;48.106;11.544;2022-07-29T13:32:48;3.67;;;2.20;;
14096;SDS011;7125;48.106;11.544;2022-07-29T13:35:16;2.75;;;2.55;;
14096;SDS011;7125;48.106;11.544;2022-07-29T13:37:43;2.58;;;2.38;;
14096;SDS011;7125;48.106;11.544;2022-07-29T13:40:12;2.67;;;2.47;;
14096;SDS011;7125;48.106;11.544;2022-07-29T13:42:40;2.65;;;2.45;;
14096;SDS011;7125;48.106;11.544;2022-07-29T13:45:07;2.70;;;2.50;;
14096;SDS011;7125;48.106;11.544;2022-07-29T13:47:35;2.10;;;2.00;;
14096;SDS011;7125;48.106;11.544;2022-07-29T13:50:03;2.50;;;2.28;;
14096;SDS011;7125;48.106;11.544;2022-07-29T13:52:32;4.57;;;2.10;;
14096;SDS011;7125;48.106;11.544;2022-07-29T13:54:59;2.50;;;2.30;;
14096;SDS011;7125;48.106;11.544;2022-07-29T13:57:27;2.42;;;2.22;;
14096;SDS011;7125;48.106;11.544;2022-07-29T13:59:55;4.40;;;2.35;;
14096;SDS011;7125;48.106;11.544;2022-07-29T14:02:22;2.78;;;2.55;;
14096;SDS011;7125;48.106;11.544;2022-07-29T14:04:49;3.90;;;2.53;;
14096;SDS011;7125;48.106;11.544;2022-07-29T14:07:16;2.30;;;2.10;;
14096;SDS011;7125;48.106;11.544;2022-07-29T14:09:43;4.93;;;2.30;;
14096;SDS011;7125;48.106;11.544;2022-07-29T14:12:10;2.45;;;1.90;;
14096;SDS011;7125;48.106;11.544;2022-07-29T14:14:39;6.78;;;2.53;;
14096;SDS011;7125;48.106;11.544;2022-07-29T14:17:06;2.10;;;2.00;;
14096;SDS011;7125;48.106;11.544;2022-07-29T14:19:33;2.65;;;2.45;;
14096;SDS011;7125;48.106;11.544;2022-07-29T14:22:02;4.32;;;2.83;;
14096;SDS011;7125;48.106;11.544;2022-07-29T14:24:30;2.25;;;2.05;;
14096;SDS011;7125;48.106;11.544;2022-07-29T14:26:57;2.42;;;2.25;;
14096;SDS011;7125;48.106;11.544;2022-07-29T14:29:24;2.97;;;2.20;;
14096;SDS011;7125;48.106;11.544;2022-07-29T14:31:52;2.53;;;2.33;;
14096;SDS011;7125;48.106;11.544;2022-07-29T14:34:19;4.25;;;2.35;;
14096;SDS011;7125;48.106;11.544;2022-07-29T14:36:46;3.08;;;2.20;;
14096;SDS011;7125;48.106;11.544;2022-07-29T14:39:13;1.90;;;1.80;;
14096;SDS011;7125;48.106;11.544;2022-07-29T14:41:41;2.90;;;2.27;;
14096;SDS011;7125;48.106;11.544;2022-07-29T14:44:08;6.43;;;2.45;;
14096;SDS011;7125;48.106;11.544;2022-07-29T14:46:35;3.25;;;2.20;;
14096;SDS011;7125;48.106;11.544;2022-07-29T14:49:03;1.73;;;1.63;;
14096;SDS011;7125;48.106;11.544;2022-07-29T14:51:31;2.35;;;1.95;;
14096;SDS011;7125;48.106;11.544;2022-07-29T14:53:58;2.03;;;1.88;;
14096;SDS011;7125;48.106;11.544;2022-07-29T14:56:25;4.03;;;2.25;;
14096;SDS011;7125;48.106;11.544;2022-07-29T14:58:54;4.40;;;2.00;;
14096;SDS011;7125;48.106;11.544;2022-07-29T15:01:22;1.85;;;1.75;;
14096;SDS011;7125;48.106;11.544;2022-07-29T15:03:49;5.47;;;2.55;;
14096;SDS011;7125;48.106;11.544;2022-07-29T15:06:17;3.47;;;2.05;;
14096;SDS011;7125;48.106;11.544;2022-07-29T15:08:44;2.40;;;2.20;;
14096;SDS011;7125;48.106;11.544;2022-07-29T15:11:11;1.88;;;1.77;;